createdAt,value
2023-05-19T00:00:24.729Z,4.15
2023-05-19T00:02:51.811Z,4.32
2023-05-19T00:05:18.796Z,3.90
2023-05-19T00:07:46.171Z,3.97
2023-05-19T00:10:13.370Z,4.15
2023-05-19T00:12:40.108Z,4.50
2023-05-19T00:15:07.456Z,3.35
2023-05-19T00:17:34.473Z,3.50
2023-05-19T00:20:01.480Z,3.47
2023-05-19T00:22:28.248Z,3.45
2023-05-19T00:24:54.871Z,3.38
2023-05-19T00:27:21.582Z,3.50
2023-05-19T00:29:48.215Z,3.33
2023-05-19T00:32:15.811Z,3.55
2023-05-19T00:34:45.065Z,3.35
2023-05-19T00:37:11.696Z,3.30
2023-05-19T00:39:38.318Z,3.20
2023-05-19T00:42:05.853Z,4.28
2023-05-19T00:44:32.473Z,4.30
2023-05-19T00:46:59.218Z,3.33
2023-05-19T00:49:26.740Z,3.05
2023-05-19T00:51:53.391Z,3.22
2023-05-19T00:54:20.922Z,3.92
2023-05-19T00:56:49.615Z,3.35
2023-05-19T00:59:16.740Z,3.28
2023-05-19T01:01:43.392Z,3.72
2023-05-19T01:04:11.313Z,3.75
2023-05-19T01:06:38.637Z,3.95
2023-05-19T01:09:05.365Z,3.42
2023-05-19T01:11:31.972Z,3.75
2023-05-19T01:13:58.583Z,4.13
2023-05-19T01:16:33.743Z,3.90
2023-05-19T01:19:30.717Z,3.60
2023-05-19T01:22:13.237Z,3.50
2023-05-19T01:25:06.968Z,3.47
2023-05-19T01:27:43.263Z,3.60
2023-05-19T01:30:39.665Z,3.85
2023-05-19T01:33:10.607Z,3.20
2023-05-19T01:35:40.036Z,3.92
2023-05-19T01:38:09.491Z,3.38
2023-05-19T01:40:37.892Z,3.47
2023-05-19T01:43:05.095Z,4.00
2023-05-19T01:45:33.861Z,3.92
2023-05-19T01:48:02.838Z,3.28
2023-05-19T01:50:30.325Z,4.18
2023-05-19T01:52:57.208Z,3.47
2023-05-19T01:55:24.225Z,3.78
2023-05-19T01:58:10.391Z,3.22
2023-05-19T02:00:58.267Z,2.90
2023-05-19T02:03:33.141Z,3.03
2023-05-19T02:06:15.992Z,4.18
2023-05-19T02:08:58.596Z,3.88
2023-05-19T02:11:34.388Z,3.58
2023-05-19T02:14:03.158Z,4.00
2023-05-19T02:16:30.223Z,3.65
2023-05-19T02:18:57.357Z,3.67
2023-05-19T02:21:24.089Z,3.42
2023-05-19T02:23:50.770Z,3.60
2023-05-19T02:26:19.950Z,4.90
2023-05-19T02:28:46.625Z,4.60
2023-05-19T02:31:13.405Z,3.40
2023-05-19T02:33:40.038Z,3.42
2023-05-19T02:36:10.025Z,3.22
2023-05-19T02:38:36.818Z,3.35
2023-05-19T02:41:05.723Z,3.70
2023-05-19T02:43:32.378Z,3.20
2023-05-19T02:45:59.149Z,3.22
2023-05-19T02:48:26.755Z,3.17
2023-05-19T02:50:53.472Z,3.75
2023-05-19T02:53:20.144Z,3.70
2023-05-19T02:55:46.795Z,3.13
2023-05-19T02:58:13.792Z,3.28
2023-05-19T03:00:40.557Z,2.90
2023-05-19T03:03:07.355Z,3.85
2023-05-19T03:05:34.116Z,3.95
2023-05-19T03:08:00.759Z,3.72
2023-05-19T03:10:27.943Z,3.65
2023-05-19T03:12:54.629Z,3.30
2023-05-19T03:15:23.258Z,3.17
2023-05-19T03:17:50.140Z,3.00
2023-05-19T03:20:16.906Z,3.53
2023-05-19T03:22:43.709Z,3.60
2023-05-19T03:25:10.428Z,3.35
2023-05-19T03:27:37.067Z,3.22
2023-05-19T03:30:06.648Z,3.42
2023-05-19T03:32:38.078Z,3.30
2023-05-19T03:35:05.471Z,3.58
2023-05-19T03:37:34.868Z,4.47
2023-05-19T03:40:02.550Z,2.95
2023-05-19T03:42:30.612Z,3.25
2023-05-19T03:44:57.238Z,3.03
2023-05-19T03:47:24.021Z,3.85
2023-05-19T03:50:02.153Z,2.63
2023-05-19T03:52:48.108Z,2.97
2023-05-19T03:55:37.751Z,3.47
2023-05-19T03:58:06.358Z,3.53
2023-05-19T04:00:33.286Z,3.13
2023-05-19T04:03:00.646Z,3.55
2023-05-19T04:05:27.534Z,2.97
2023-05-19T04:07:54.174Z,3.78
2023-05-19T04:10:21.116Z,3.17
2023-05-19T04:12:48.006Z,3.15
2023-05-19T04:15:15.865Z,3.67
2023-05-19T04:17:42.809Z,3.50
2023-05-19T04:20:10.002Z,2.78
2023-05-19T04:22:36.637Z,4.00
2023-05-19T04:25:04.813Z,3.92
2023-05-19T04:27:32.067Z,3.92
2023-05-19T04:30:02.500Z,3.70
2023-05-19T04:32:29.347Z,3.22
2023-05-19T04:34:58.869Z,3.38
2023-05-19T04:37:27.491Z,3.15
2023-05-19T04:39:54.642Z,3.47
2023-05-19T04:42:26.140Z,3.75
2023-05-19T04:44:53.892Z,3.10
2023-05-19T04:47:27.916Z,3.67
2023-05-19T04:49:55.623Z,4.65
2023-05-19T04:52:22.734Z,4.82
2023-05-19T04:54:50.653Z,4.53
2023-05-19T04:57:17.440Z,3.95
2023-05-19T04:59:46.293Z,4.22
2023-05-19T05:02:13.150Z,3.70
2023-05-19T05:04:42.646Z,4.25
2023-05-19T05:07:10.300Z,5.03
2023-05-19T05:09:37.984Z,3.63
2023-05-19T05:12:07.513Z,3.75
2023-05-19T05:14:35.974Z,4.07
2023-05-19T05:17:03.448Z,5.25
2023-05-19T05:19:31.830Z,3.92
2023-05-19T05:21:58.821Z,3.90
2023-05-19T05:24:25.948Z,4.15
2023-05-19T05:26:58.885Z,4.35
2023-05-19T05:29:26.004Z,3.95
2023-05-19T05:31:52.860Z,3.45
2023-05-19T05:34:19.628Z,4.28
2023-05-19T05:36:46.470Z,3.35
2023-05-19T05:39:16.329Z,4.72
2023-05-19T05:41:44.779Z,3.42
2023-05-19T05:44:12.595Z,3.65
2023-05-19T05:46:41.723Z,3.90
2023-05-19T05:49:09.406Z,4.07
2023-05-19T05:51:36.569Z,3.55
2023-05-19T05:54:06.422Z,3.50
2023-05-19T05:56:37.611Z,4.30
2023-05-19T05:59:07.391Z,3.88
2023-05-19T06:01:36.630Z,4.65
2023-05-19T06:04:05.462Z,3.80
2023-05-19T06:06:32.857Z,5.03
2023-05-19T06:09:01.680Z,4.47
2023-05-19T06:11:29.053Z,4.18
2023-05-19T06:13:57.988Z,5.53
2023-05-19T06:16:48.249Z,4.63
2023-05-19T06:19:16.666Z,3.90
2023-05-19T06:21:44.266Z,4.15
2023-05-19T06:24:11.681Z,4.40
2023-05-19T06:26:38.423Z,4.53
2023-05-19T06:29:05.058Z,4.35
2023-05-19T06:31:33.444Z,4.85
2023-05-19T06:34:12.196Z,4.82
2023-05-19T06:36:41.330Z,4.63
2023-05-19T06:39:08.259Z,4.18
2023-05-19T06:41:35.973Z,4.40
2023-05-19T06:44:06.841Z,4.95
2023-05-19T06:46:33.796Z,5.25
2023-05-19T06:49:01.003Z,5.03
2023-05-19T06:51:31.426Z,4.78
2023-05-19T06:53:59.686Z,5.80
2023-05-19T06:56:27.074Z,5.03
2023-05-19T06:58:53.706Z,5.63
2023-05-19T07:01:26.597Z,4.72
2023-05-19T07:03:55.435Z,4.13
2023-05-19T07:06:22.585Z,4.50
2023-05-19T07:08:50.791Z,5.15
2023-05-19T07:11:18.678Z,4.43
2023-05-19T07:13:45.788Z,4.63
2023-05-19T07:16:16.551Z,4.75
2023-05-19T07:18:44.679Z,4.15
2023-05-19T07:21:11.551Z,3.65
2023-05-19T07:23:38.237Z,5.22
2023-05-19T07:26:04.903Z,4.65
2023-05-19T07:28:31.566Z,4.43
2023-05-19T07:30:58.192Z,4.50
2023-05-19T07:33:26.898Z,4.07
2023-05-19T07:35:53.688Z,3.75
2023-05-19T07:38:20.453Z,4.25
2023-05-19T07:40:47.117Z,4.38
2023-05-19T07:43:16.694Z,4.07
2023-05-19T07:45:43.445Z,3.70
2023-05-19T07:48:10.354Z,4.60
2023-05-19T07:50:37.043Z,5.43
2023-05-19T07:53:03.658Z,3.90
2023-05-19T07:55:30.362Z,4.20
2023-05-19T07:57:57.288Z,5.00
2023-05-19T08:00:24.477Z,4.07
2023-05-19T08:02:52.941Z,4.13
2023-05-19T08:05:19.717Z,4.32
2023-05-19T08:07:46.344Z,4.18
2023-05-19T08:10:12.960Z,4.88
2023-05-19T08:12:39.747Z,3.97
2023-05-19T08:15:07.399Z,4.55
2023-05-19T08:17:34.159Z,3.60
2023-05-19T08:20:00.816Z,4.03
2023-05-19T08:22:28.057Z,4.70
2023-05-19T08:24:54.663Z,4.38
2023-05-19T08:27:21.329Z,4.57
2023-05-19T08:29:47.974Z,4.95
2023-05-19T08:32:14.565Z,4.10
2023-05-19T08:34:41.370Z,4.80
2023-05-19T08:37:08.131Z,4.60
2023-05-19T08:39:34.897Z,5.32
2023-05-19T08:42:02.345Z,7.13
2023-05-19T08:44:30.784Z,5.03
2023-05-19T08:47:00.945Z,5.22
2023-05-19T08:49:28.456Z,5.07
2023-05-19T08:52:31.457Z,4.72
2023-05-19T08:55:07.398Z,4.85
2023-05-19T08:57:34.184Z,5.68
2023-05-19T09:00:01.208Z,5.63
2023-05-19T09:02:28.027Z,4.68
2023-05-19T09:04:56.517Z,6.93
2023-05-19T09:07:25.612Z,4.78
2023-05-19T09:09:54.761Z,4.97
2023-05-19T09:12:21.367Z,4.95
2023-05-19T09:14:48.562Z,4.88
2023-05-19T09:17:15.809Z,5.38
2023-05-19T09:19:48.104Z,5.00
2023-05-19T09:22:16.253Z,6.60
2023-05-19T09:24:43.551Z,4.45
2023-05-19T09:27:10.196Z,4.32
2023-05-19T09:29:41.530Z,5.82
2023-05-19T09:32:08.281Z,6.00
2023-05-19T09:34:34.949Z,4.78
2023-05-19T09:37:02.072Z,3.88
2023-05-19T09:39:28.975Z,5.47
2023-05-19T09:41:58.686Z,5.78
2023-05-19T09:44:30.336Z,5.00
2023-05-19T09:46:57.376Z,5.43
2023-05-19T09:49:25.548Z,4.47
2023-05-19T09:51:55.687Z,4.82
2023-05-19T09:54:23.769Z,4.68
2023-05-19T09:57:00.495Z,4.63
2023-05-19T09:59:32.377Z,5.35
2023-05-19T10:02:00.336Z,4.95
2023-05-19T10:04:28.628Z,5.25
2023-05-19T10:06:59.445Z,4.60
2023-05-19T10:09:29.966Z,4.70
2023-05-19T10:11:59.535Z,5.65
2023-05-19T10:14:27.829Z,5.13
2023-05-19T10:16:57.092Z,5.15
2023-05-19T10:19:25.860Z,4.30
2023-05-19T10:21:54.019Z,4.10
2023-05-19T10:24:21.599Z,4.85
2023-05-19T10:27:14.630Z,4.63
2023-05-19T10:29:45.085Z,5.35
2023-05-19T10:32:20.957Z,5.40
2023-05-19T10:35:07.476Z,4.63
2023-05-19T10:37:46.053Z,4.32
2023-05-19T10:40:20.235Z,5.15
2023-05-19T10:43:26.257Z,5.25
2023-05-19T10:45:54.997Z,4.50
2023-05-19T10:48:23.041Z,4.28
2023-05-19T10:50:53.730Z,4.50
2023-05-19T10:53:24.932Z,4.35
2023-05-19T10:58:45.156Z,4.72
2023-05-19T11:01:16.950Z,5.28
2023-05-19T11:03:59.518Z,3.75
2023-05-19T11:06:28.498Z,4.80
2023-05-19T11:09:11.529Z,4.78
2023-05-19T11:11:48.767Z,5.30
2023-05-19T11:14:27.280Z,3.80
2023-05-19T11:16:57.667Z,4.47
2023-05-19T11:19:32.251Z,5.40
2023-05-19T11:22:10.494Z,4.82
2023-05-19T11:24:50.125Z,4.78
2023-05-19T11:27:22.865Z,5.40
2023-05-19T11:29:49.761Z,5.43
2023-05-19T11:32:16.493Z,4.50
2023-05-19T11:34:44.452Z,4.40
2023-05-19T11:37:11.406Z,5.13
2023-05-19T11:39:39.357Z,5.38
2023-05-19T11:42:06.419Z,4.35
2023-05-19T11:44:33.082Z,4.45
2023-05-19T11:47:00.315Z,5.53
2023-05-19T11:49:29.576Z,5.88
2023-05-19T11:51:56.397Z,4.82
2023-05-19T11:54:29.775Z,5.03
2023-05-19T11:56:56.986Z,5.10
2023-05-19T11:59:35.658Z,4.90
2023-05-19T12:02:24.973Z,4.15
2023-05-19T12:04:52.088Z,5.15
2023-05-19T12:07:46.896Z,4.47
2023-05-19T12:10:25.217Z,4.55
2023-05-19T12:12:52.035Z,4.55
2023-05-19T12:15:22.282Z,6.35
2023-05-19T12:18:00.815Z,4.18
2023-05-19T12:20:29.376Z,3.90
2023-05-19T12:22:56.389Z,4.25
2023-05-19T12:25:23.606Z,3.92
2023-05-19T12:27:52.671Z,4.75
2023-05-19T12:30:29.005Z,4.60
2023-05-19T12:32:59.168Z,4.65
2023-05-19T12:35:36.179Z,4.80
2023-05-19T12:38:04.874Z,3.40
2023-05-19T12:40:31.949Z,4.30
2023-05-19T12:42:59.515Z,4.47
2023-05-19T12:45:28.802Z,5.63
2023-05-19T12:47:56.108Z,4.07
2023-05-19T12:50:32.985Z,4.05
2023-05-19T12:53:11.589Z,5.32
2023-05-19T12:55:41.571Z,4.28
2023-05-19T12:58:08.883Z,4.50
2023-05-19T13:00:41.131Z,4.13
2023-05-19T13:03:09.952Z,4.50
2023-05-19T13:05:44.622Z,4.63
2023-05-19T13:08:13.171Z,4.00
2023-05-19T13:10:41.414Z,5.05
2023-05-19T13:13:09.311Z,3.88
2023-05-19T13:15:38.522Z,4.28
2023-05-19T13:18:09.102Z,3.40
2023-05-19T13:20:36.539Z,5.07
2023-05-19T13:23:03.741Z,3.95
2023-05-19T13:25:30.656Z,4.22
2023-05-19T13:27:59.503Z,3.70
2023-05-19T13:30:26.146Z,4.88
2023-05-19T13:32:53.077Z,4.50
2023-05-19T13:35:20.039Z,5.13
2023-05-19T13:37:46.710Z,4.53
2023-05-19T13:40:13.495Z,5.25
2023-05-19T13:42:40.622Z,5.13
2023-05-19T13:45:33.374Z,4.75
2023-05-19T13:48:12.874Z,3.90
2023-05-19T13:50:39.733Z,5.45
2023-05-19T13:53:06.637Z,4.43
2023-05-19T13:55:33.392Z,3.72
2023-05-19T13:58:00.195Z,5.07
2023-05-19T14:00:27.120Z,5.30
2023-05-19T14:02:53.901Z,6.07
2023-05-19T14:05:20.622Z,6.13
2023-05-19T14:07:47.291Z,5.53
2023-05-19T14:10:13.904Z,4.78
2023-05-19T14:13:04.890Z,5.13
2023-05-19T14:15:27.868Z,5.03
2023-05-19T14:17:54.601Z,5.80
2023-05-19T14:20:21.757Z,4.55
2023-05-19T14:22:48.388Z,6.15
2023-05-19T14:25:15.030Z,5.22
2023-05-19T14:27:41.675Z,5.05
2023-05-19T14:30:08.816Z,4.97
2023-05-19T14:32:35.942Z,4.82
2023-05-19T14:35:02.627Z,6.88
2023-05-19T14:37:29.306Z,6.75
2023-05-19T14:39:57.684Z,6.38
2023-05-19T14:42:26.691Z,5.43
2023-05-19T14:44:53.352Z,5.28
2023-05-19T14:47:30.615Z,5.82
2023-05-19T14:49:57.425Z,5.18
2023-05-19T14:52:24.230Z,5.72
2023-05-19T14:54:50.870Z,5.00
2023-05-19T14:57:17.532Z,5.13
2023-05-19T14:59:44.173Z,6.93
2023-05-19T15:02:11.970Z,5.35
2023-05-19T15:04:38.965Z,7.45
2023-05-19T15:07:10.328Z,6.40
2023-05-19T15:09:37.777Z,5.22
2023-05-19T15:12:07.618Z,5.88
2023-05-19T15:14:34.327Z,6.15
2023-05-19T15:17:01.214Z,5.70
2023-05-19T15:19:28.019Z,4.70
2023-05-19T15:21:54.717Z,4.30
2023-05-19T15:24:21.396Z,5.88
2023-05-19T15:26:48.113Z,5.38
2023-05-19T15:29:14.779Z,5.47
2023-05-19T15:31:42.347Z,5.90
2023-05-19T15:34:11.602Z,7.00
2023-05-19T15:36:38.237Z,6.80
2023-05-19T15:39:05.076Z,7.00
2023-05-19T15:41:33.175Z,5.95
2023-05-19T15:44:00.667Z,6.57
2023-05-19T15:46:27.540Z,6.18
2023-05-19T15:48:54.322Z,7.20
2023-05-19T15:51:21.039Z,6.13
2023-05-19T15:53:47.647Z,7.53
2023-05-19T15:56:14.562Z,6.80
2023-05-19T15:58:41.268Z,6.15
2023-05-19T16:01:08.292Z,6.00
2023-05-19T16:03:35.018Z,6.85
2023-05-19T16:06:01.739Z,6.10
2023-05-19T16:08:28.643Z,7.47
2023-05-19T16:10:55.589Z,5.75
2023-05-19T16:13:22.724Z,5.97
2023-05-19T16:15:50.695Z,5.38
2023-05-19T16:18:20.741Z,7.13
2023-05-19T16:20:47.467Z,5.75
2023-05-19T16:23:14.204Z,6.13
2023-05-19T16:25:41.488Z,5.93
2023-05-19T16:28:08.171Z,6.45
2023-05-19T16:30:35.390Z,7.22
2023-05-19T16:33:02.340Z,6.85
2023-05-19T16:35:29.708Z,6.82
2023-05-19T16:37:56.485Z,6.68
2023-05-19T16:40:23.167Z,6.38
2023-05-19T16:42:49.835Z,6.93
2023-05-19T16:45:17.489Z,9.10
2023-05-19T16:47:46.724Z,11.48
2023-05-19T16:50:13.354Z,8.55
2023-05-19T16:52:40.054Z,10.95
2023-05-19T16:55:07.146Z,9.95
2023-05-19T16:57:33.935Z,8.60
2023-05-19T17:00:00.622Z,11.38
2023-05-19T17:02:28.166Z,8.85
2023-05-19T17:04:55.421Z,8.38
2023-05-19T17:07:22.022Z,6.70
2023-05-19T17:09:48.751Z,6.85
2023-05-19T17:12:15.370Z,6.38
2023-05-19T17:14:43.500Z,6.60
2023-05-19T17:17:10.311Z,6.10
2023-05-19T17:19:37.011Z,6.72
2023-05-19T17:22:03.833Z,6.75
2023-05-19T17:24:33.117Z,6.22
2023-05-19T17:27:00.511Z,6.82
2023-05-19T17:29:27.956Z,7.32
2023-05-19T17:31:55.408Z,6.78
2023-05-19T17:34:22.191Z,6.70
2023-05-19T17:36:49.659Z,6.10
2023-05-19T17:39:20.273Z,6.03
2023-05-19T17:41:46.976Z,6.25
2023-05-19T17:44:13.593Z,7.25
2023-05-19T17:46:40.322Z,5.80
2023-05-19T17:49:07.340Z,7.22
2023-05-19T17:51:34.227Z,7.15
2023-05-19T17:54:01.302Z,6.68
2023-05-19T17:56:30.775Z,6.82
2023-05-19T17:58:57.690Z,7.28
2023-05-19T18:01:25.772Z,6.43
2023-05-19T18:03:52.771Z,6.68
2023-05-19T18:06:19.728Z,5.68
2023-05-19T18:08:51.406Z,6.10
2023-05-19T18:11:18.739Z,5.85
2023-05-19T18:13:45.556Z,6.75
2023-05-19T18:16:12.404Z,6.45
2023-05-19T18:18:41.161Z,5.90
2023-05-19T18:21:07.922Z,7.88
2023-05-19T18:23:34.528Z,10.70
2023-05-19T18:26:01.200Z,6.95
2023-05-19T18:28:29.636Z,5.50
2023-05-19T18:31:04.185Z,5.97
2023-05-19T18:33:31.646Z,6.25
2023-05-19T18:35:58.620Z,6.40
2023-05-19T18:38:25.327Z,5.95
2023-05-19T18:40:51.983Z,6.40
2023-05-19T18:43:19.224Z,5.43
2023-05-19T18:45:48.970Z,4.88
2023-05-19T18:48:15.790Z,4.90
2023-05-19T18:50:44.503Z,4.13
2023-05-19T18:53:11.814Z,4.50
2023-05-19T18:55:38.651Z,5.47
2023-05-19T18:58:06.102Z,4.75
2023-05-19T19:00:36.024Z,5.07
2023-05-19T19:03:02.809Z,4.63
2023-05-19T19:05:30.194Z,4.45
2023-05-19T19:07:57.503Z,4.10
2023-05-19T19:10:24.170Z,3.97
2023-05-19T19:12:51.035Z,3.97
2023-05-19T19:15:17.665Z,4.47
2023-05-19T19:17:45.265Z,3.80
2023-05-19T19:20:12.293Z,4.18
2023-05-19T19:22:38.977Z,4.00
2023-05-19T19:25:05.931Z,5.47
2023-05-19T19:27:35.419Z,3.97
2023-05-19T19:30:02.221Z,4.93
2023-05-19T19:32:31.261Z,3.90
2023-05-19T19:34:58.172Z,4.70
2023-05-19T19:37:24.842Z,5.35
2023-05-19T19:39:51.512Z,4.40
2023-05-19T19:42:18.563Z,4.88
2023-05-19T19:44:45.313Z,4.30
2023-05-19T19:47:11.971Z,4.38
2023-05-19T19:49:41.195Z,4.93
2023-05-19T19:52:07.920Z,4.63
2023-05-19T19:54:34.593Z,4.72
2023-05-19T19:57:01.567Z,4.18
2023-05-19T19:59:28.229Z,4.32
2023-05-19T20:01:57.959Z,4.50
2023-05-19T20:04:24.715Z,4.00
2023-05-19T20:06:51.559Z,4.07
2023-05-19T20:09:18.167Z,4.00
2023-05-19T20:11:44.829Z,4.63
2023-05-19T20:14:11.506Z,4.88
2023-05-19T20:16:38.214Z,4.18
2023-05-19T20:19:06.678Z,4.25
2023-05-19T20:21:34.386Z,4.60
2023-05-19T20:24:01.049Z,4.95
2023-05-19T20:26:29.074Z,4.68
2023-05-19T20:28:58.986Z,4.22
2023-05-19T20:31:25.870Z,5.50
2023-05-19T20:33:52.631Z,4.40
2023-05-19T20:36:19.407Z,4.50
2023-05-19T20:38:47.807Z,4.93
2023-05-19T20:41:14.895Z,5.20
2023-05-19T20:43:41.691Z,5.97
2023-05-19T20:46:08.514Z,4.30
2023-05-19T20:48:35.418Z,4.72
2023-05-19T20:51:02.174Z,4.80
2023-05-19T20:53:28.824Z,4.65
2023-05-19T20:55:55.600Z,5.07
2023-05-19T20:58:22.404Z,4.95
2023-05-19T21:00:54.113Z,4.25
2023-05-19T21:03:23.412Z,4.95
2023-05-19T21:05:50.397Z,5.47
2023-05-19T21:08:17.082Z,4.28
2023-05-19T21:10:43.708Z,4.25
2023-05-19T21:13:10.357Z,4.60
2023-05-19T21:15:36.983Z,3.60
2023-05-19T21:18:03.685Z,4.80
2023-05-19T21:20:30.488Z,4.22
2023-05-19T21:22:57.190Z,4.13
2023-05-19T21:25:23.876Z,4.72
2023-05-19T21:27:51.532Z,4.47
2023-05-19T21:30:18.241Z,4.28
2023-05-19T21:32:44.927Z,4.75
2023-05-19T21:35:11.634Z,5.55
2023-05-19T21:37:38.297Z,5.28
2023-05-19T21:40:05.190Z,5.35
2023-05-19T21:42:31.810Z,5.40
2023-05-19T21:44:58.455Z,4.63
2023-05-19T21:47:25.112Z,5.25
2023-05-19T21:49:51.794Z,6.05
2023-05-19T21:52:19.118Z,5.65
2023-05-19T21:54:45.986Z,5.32
2023-05-19T21:57:14.684Z,5.50
2023-05-19T21:59:41.687Z,6.13
2023-05-19T22:02:08.467Z,5.38
2023-05-19T22:04:35.801Z,5.57
2023-05-19T22:07:03.101Z,5.07
2023-05-19T22:09:30.035Z,5.63
2023-05-19T22:11:56.665Z,6.90
2023-05-19T22:14:23.295Z,5.40
2023-05-19T22:16:49.922Z,5.05
2023-05-19T22:19:16.593Z,5.25
2023-05-19T22:21:43.325Z,5.60
2023-05-19T22:24:12.042Z,5.47
2023-05-19T22:26:42.526Z,5.82
2023-05-19T22:29:12.161Z,6.72
2023-05-19T22:31:38.748Z,5.93
2023-05-19T22:34:05.624Z,6.15
2023-05-19T22:36:32.249Z,6.70
2023-05-19T22:38:58.855Z,6.35
2023-05-19T22:41:25.551Z,6.30
2023-05-19T22:43:52.317Z,5.45
2023-05-19T22:46:18.959Z,5.45
2023-05-19T22:48:45.795Z,5.50
2023-05-19T22:51:12.406Z,5.63
2023-05-19T22:53:39.089Z,6.82
2023-05-19T22:56:05.874Z,6.32
2023-05-19T22:58:32.937Z,7.20
2023-05-19T23:00:59.618Z,8.10
2023-05-19T23:03:26.283Z,7.25
2023-05-19T23:05:52.916Z,6.38
2023-05-19T23:08:19.526Z,6.55
2023-05-19T23:10:46.158Z,7.10
2023-05-19T23:13:12.792Z,7.18
2023-05-19T23:15:41.577Z,7.10
2023-05-19T23:18:08.694Z,7.95
2023-05-19T23:20:35.469Z,6.25
2023-05-19T23:23:02.069Z,8.38
2023-05-19T23:25:28.722Z,8.15
2023-05-19T23:27:55.365Z,7.43
2023-05-19T23:30:21.994Z,7.10
2023-05-19T23:32:48.686Z,7.18
2023-05-19T23:35:17.417Z,7.00
2023-05-19T23:37:44.071Z,6.25
2023-05-19T23:40:11.387Z,6.88
2023-05-19T23:42:38.029Z,6.68
2023-05-19T23:45:04.966Z,6.57
2023-05-19T23:47:31.665Z,7.75
2023-05-19T23:49:58.351Z,7.00
2023-05-19T23:52:25.023Z,8.63
2023-05-19T23:54:51.677Z,7.82
2023-05-19T23:57:18.339Z,7.45
2023-05-19T23:59:45.020Z,7.55
